createdAt,value
2023-02-21T00:01:58.553Z,-0.45
2023-02-21T00:04:43.397Z,-0.51
2023-02-21T00:07:28.906Z,-0.58
2023-02-21T00:10:13.581Z,-0.57
2023-02-21T00:12:58.674Z,-0.60
2023-02-21T00:15:43.891Z,-0.63
2023-02-21T00:18:29.013Z,-0.64
2023-02-21T00:21:14.019Z,-0.67
2023-02-21T00:23:59.369Z,-0.71
2023-02-21T00:26:44.643Z,-0.72
2023-02-21T00:29:29.923Z,-0.70
2023-02-21T00:32:14.597Z,-0.76
2023-02-21T00:34:59.630Z,-0.77
2023-02-21T00:37:44.275Z,-0.79
2023-02-21T00:40:33.522Z,-0.77
2023-02-21T00:43:18.789Z,-0.78
2023-02-21T00:46:04.282Z,-0.77
2023-02-21T00:48:49.562Z,-0.85
2023-02-21T00:51:35.938Z,-0.93
2023-02-21T00:54:20.621Z,-0.85
2023-02-21T00:57:05.756Z,-0.90
2023-02-21T00:59:50.521Z,-1.00
2023-02-21T01:02:35.322Z,-1.14
2023-02-21T01:05:20.024Z,-1.03
2023-02-21T01:08:05.029Z,-1.11
2023-02-21T01:10:49.764Z,-1.15
2023-02-21T01:13:35.051Z,-1.16
2023-02-21T01:16:20.321Z,-1.13
2023-02-21T01:19:05.438Z,-1.11
2023-02-21T01:21:50.110Z,-1.12
2023-02-21T01:24:35.465Z,-1.03
2023-02-21T01:27:20.163Z,-1.04
2023-02-21T01:30:06.786Z,-1.08
2023-02-21T01:32:51.687Z,-1.11
2023-02-21T01:35:37.428Z,-1.10
2023-02-21T01:38:22.165Z,-1.13
2023-02-21T01:41:07.300Z,-1.17
2023-02-21T01:43:52.014Z,-1.20
2023-02-21T01:46:39.922Z,-1.20
2023-02-21T01:49:34.833Z,-1.26
2023-02-21T01:52:21.996Z,-1.28
2023-02-21T01:55:10.993Z,-1.30
2023-02-21T01:57:58.825Z,-1.27
2023-02-21T02:00:44.627Z,-1.40
2023-02-21T02:03:32.636Z,-1.51
2023-02-21T02:06:22.138Z,-1.44
2023-02-21T02:09:07.164Z,-1.50
2023-02-21T02:12:20.012Z,-1.40
2023-02-21T02:14:49.422Z,-1.45
2023-02-21T02:17:16.658Z,-1.46
2023-02-21T02:19:49.762Z,-1.40
2023-02-21T02:22:16.017Z,-1.33
2023-02-21T02:24:48.375Z,-1.29
2023-02-21T02:28:02.706Z,-1.38
2023-02-21T02:31:16.394Z,-1.40
2023-02-21T02:34:06.540Z,-1.46
2023-02-21T02:36:57.282Z,-1.56
2023-02-21T02:39:49.675Z,-1.61
2023-02-21T02:42:24.874Z,-1.58
2023-02-21T02:45:00.931Z,-1.62
2023-02-21T02:47:36.571Z,-1.63
2023-02-21T02:50:06.701Z,-1.68
2023-02-21T02:52:34.249Z,-1.72
2023-02-21T02:55:04.320Z,-1.68
2023-02-21T02:57:41.355Z,-1.73
2023-02-21T03:00:10.669Z,-1.75
2023-02-21T03:02:50.918Z,-1.70
2023-02-21T03:05:32.506Z,-1.63
2023-02-21T03:08:20.694Z,-1.68
2023-02-21T03:11:06.147Z,-1.70
2023-02-21T03:13:41.884Z,-1.74
2023-02-21T03:16:18.946Z,-1.71
2023-02-21T03:19:12.692Z,-1.79
2023-02-21T03:21:46.746Z,-1.75
2023-02-21T03:24:15.154Z,-1.82
2023-02-21T03:26:47.066Z,-1.96
2023-02-21T03:29:15.630Z,-2.18
2023-02-21T03:31:48.172Z,-2.11
2023-02-21T03:34:15.220Z,-2.07
2023-02-21T03:36:42.368Z,-1.97
2023-02-21T03:39:08.731Z,-1.97
2023-02-21T03:41:35.053Z,-1.95
2023-02-21T03:44:01.787Z,-1.92
2023-02-21T03:46:28.133Z,-1.90
2023-02-21T03:48:54.494Z,-1.92
2023-02-21T03:51:21.161Z,-1.94
2023-02-21T03:53:47.498Z,-1.89
2023-02-21T03:56:13.828Z,-1.95
2023-02-21T03:58:40.153Z,-1.95
2023-02-21T04:01:06.619Z,-1.97
2023-02-21T04:03:33.001Z,-1.96
2023-02-21T04:05:59.719Z,-2.02
2023-02-21T04:08:26.055Z,-1.99
2023-02-21T04:10:52.945Z,-2.09
2023-02-21T04:13:20.441Z,-2.07
2023-02-21T04:15:46.800Z,-2.07
2023-02-21T04:18:13.191Z,-1.97
2023-02-21T04:20:39.989Z,-2.05
2023-02-21T04:23:06.336Z,-2.04
2023-02-21T04:25:32.688Z,-2.00
2023-02-21T04:27:59.778Z,-1.94
2023-02-21T04:30:26.128Z,-1.96
2023-02-21T04:32:52.522Z,-2.03
2023-02-21T04:35:19.041Z,-2.00
2023-02-21T04:37:45.841Z,-2.03
2023-02-21T04:40:12.879Z,-2.05
2023-02-21T04:42:39.890Z,-2.09
2023-02-21T04:45:06.667Z,-2.08
2023-02-21T04:47:33.012Z,-2.03
2023-02-21T04:49:59.961Z,-2.07
2023-02-21T04:52:26.761Z,-1.99
2023-02-21T04:54:53.370Z,-2.00
2023-02-21T04:57:20.324Z,-2.07
2023-02-21T04:59:46.715Z,-1.98
2023-02-21T05:02:13.107Z,-1.95
2023-02-21T05:04:40.020Z,-2.06
2023-02-21T05:07:06.430Z,-1.97
2023-02-21T05:09:32.821Z,-2.00
2023-02-21T05:12:00.688Z,-2.01
2023-02-21T05:14:27.054Z,-2.00
2023-02-21T05:16:53.425Z,-2.04
2023-02-21T05:19:27.845Z,-2.01
2023-02-21T05:21:59.674Z,-1.94
2023-02-21T05:24:28.082Z,-1.90
2023-02-21T05:26:54.487Z,-1.95
2023-02-21T05:29:20.935Z,-2.00
2023-02-21T05:31:48.576Z,-2.04
2023-02-21T05:34:15.776Z,-2.07
2023-02-21T05:36:42.140Z,-2.08
2023-02-21T05:39:09.586Z,-2.07
2023-02-21T05:41:36.077Z,-2.03
2023-02-21T05:44:03.629Z,-1.98
2023-02-21T05:46:32.503Z,-1.96
2023-02-21T05:49:00.958Z,-2.06
2023-02-21T05:51:28.437Z,-2.04
2023-02-21T05:53:55.417Z,-2.05
2023-02-21T05:56:22.264Z,-1.98
2023-02-21T05:58:49.163Z,-2.01
2023-02-21T06:01:15.996Z,-1.93
2023-02-21T06:03:43.068Z,-1.93
2023-02-21T06:06:09.540Z,-1.98
2023-02-21T06:08:44.362Z,-1.83
2023-02-21T06:11:11.071Z,-1.82
2023-02-21T06:13:37.387Z,-1.76
2023-02-21T06:16:04.549Z,-1.76
2023-02-21T06:18:30.948Z,-1.81
2023-02-21T06:20:57.267Z,-2.02
2023-02-21T06:23:24.103Z,-1.85
2023-02-21T06:25:50.471Z,-1.92
2023-02-21T06:28:17.750Z,-2.10
2023-02-21T06:30:44.780Z,-2.01
2023-02-21T06:33:11.218Z,-1.93
2023-02-21T06:35:37.539Z,-1.71
2023-02-21T06:38:04.162Z,-1.72
2023-02-21T06:40:30.512Z,-1.44
2023-02-21T06:42:56.874Z,-1.30
2023-02-21T06:45:23.824Z,-1.30
2023-02-21T06:47:50.161Z,-1.28
2023-02-21T06:50:16.829Z,-1.04
2023-02-21T06:52:43.705Z,-0.85
2023-02-21T06:55:10.076Z,-1.19
2023-02-21T06:57:36.538Z,-1.03
2023-02-21T07:00:05.789Z,-0.91
2023-02-21T07:02:32.105Z,-0.83
2023-02-21T07:04:58.478Z,-0.69
2023-02-21T07:07:25.345Z,-0.36
2023-02-21T07:09:51.655Z,-0.20
2023-02-21T07:12:17.966Z,-0.07
2023-02-21T07:14:44.817Z,0.45
2023-02-21T07:17:11.151Z,1.38
2023-02-21T07:19:37.522Z,2.19
2023-02-21T07:22:04.346Z,2.92
2023-02-21T07:24:30.710Z,2.46
2023-02-21T07:26:57.623Z,2.05
2023-02-21T07:29:24.511Z,2.78
2023-02-21T07:31:51.048Z,3.99
2023-02-21T07:34:17.914Z,4.46
2023-02-21T07:36:44.769Z,4.69
2023-02-21T07:39:11.288Z,4.90
2023-02-21T07:41:37.776Z,4.87
2023-02-21T07:44:04.661Z,4.61
2023-02-21T07:46:31.119Z,4.91
2023-02-21T07:48:58.013Z,5.78
2023-02-21T07:51:28.505Z,5.78
2023-02-21T07:53:55.224Z,6.10
2023-02-21T07:56:22.341Z,5.03
2023-02-21T07:58:48.739Z,4.87
2023-02-21T08:01:16.787Z,5.32
2023-02-21T08:03:43.330Z,4.66
2023-02-21T08:06:11.394Z,5.98
2023-02-21T08:08:37.938Z,6.44
2023-02-21T08:11:04.426Z,6.75
2023-02-21T08:13:31.180Z,6.72
2023-02-21T08:15:58.318Z,5.89
2023-02-21T08:18:25.110Z,7.26
2023-02-21T08:20:52.711Z,6.57
2023-02-21T08:23:19.758Z,7.52
2023-02-21T08:25:46.822Z,7.19
2023-02-21T08:28:14.918Z,7.87
2023-02-21T08:30:41.533Z,8.17
2023-02-21T08:33:08.284Z,7.23
2023-02-21T08:35:35.808Z,8.00
2023-02-21T08:38:05.247Z,7.99
2023-02-21T08:40:31.618Z,8.26
2023-02-21T08:43:00.610Z,8.69
2023-02-21T08:45:28.922Z,8.55
2023-02-21T08:47:55.786Z,8.72
2023-02-21T08:50:24.232Z,8.91
2023-02-21T08:52:51.250Z,9.06
2023-02-21T08:55:19.618Z,8.72
2023-02-21T08:57:49.874Z,8.63
2023-02-21T09:00:18.257Z,8.95
2023-02-21T09:02:44.753Z,9.12
2023-02-21T09:05:14.852Z,8.87
2023-02-21T09:07:41.740Z,9.32
2023-02-21T09:10:10.638Z,9.81
2023-02-21T09:12:38.390Z,10.28
2023-02-21T09:15:07.915Z,11.09
2023-02-21T09:17:34.995Z,11.64
2023-02-21T09:20:06.572Z,12.13
2023-02-21T09:22:34.051Z,11.71
2023-02-21T09:25:01.170Z,11.79
2023-02-21T09:27:37.435Z,12.07
2023-02-21T09:30:10.019Z,12.04
2023-02-21T09:32:37.064Z,11.63
2023-02-21T09:35:04.028Z,11.84
2023-02-21T09:37:30.489Z,11.45
2023-02-21T09:39:57.207Z,11.98
2023-02-21T09:42:29.063Z,12.04
2023-02-21T09:44:55.577Z,11.78
2023-02-21T09:47:36.589Z,11.22
2023-02-21T09:50:14.184Z,12.19
2023-02-21T09:52:42.413Z,12.49
2023-02-21T09:55:29.114Z,12.63
2023-02-21T09:57:57.716Z,12.55
2023-02-21T10:00:36.342Z,12.57
2023-02-21T10:03:24.468Z,13.35
2023-02-21T10:06:15.586Z,13.54
2023-02-21T10:09:03.298Z,12.80
2023-02-21T10:11:57.364Z,13.21
2023-02-21T10:14:50.529Z,13.02
2023-02-21T10:17:25.652Z,12.77
2023-02-21T10:19:55.808Z,13.06
2023-02-21T10:22:31.270Z,13.23
2023-02-21T10:24:58.478Z,13.52
2023-02-21T10:27:30.698Z,13.97
2023-02-21T10:30:10.282Z,14.29
2023-02-21T10:32:37.996Z,14.85
2023-02-21T10:35:04.868Z,14.19
2023-02-21T10:37:44.449Z,14.89
2023-02-21T10:40:29.623Z,15.01
2023-02-21T10:43:13.949Z,15.50
2023-02-21T10:45:47.031Z,15.49
2023-02-21T10:48:15.318Z,15.23
2023-02-21T10:51:04.423Z,14.51
2023-02-21T10:53:37.884Z,14.31
2023-02-21T10:56:18.611Z,13.40
2023-02-21T10:58:47.974Z,12.77
2023-02-21T11:01:19.128Z,12.86
2023-02-21T11:03:52.530Z,13.14
2023-02-21T11:06:31.459Z,13.35
2023-02-21T11:08:59.544Z,13.37
2023-02-21T11:11:37.097Z,14.48
2023-02-21T11:14:17.426Z,14.84
2023-02-21T11:16:44.354Z,15.56
2023-02-21T11:19:14.642Z,13.48
2023-02-21T11:21:45.638Z,14.86
2023-02-21T11:24:12.245Z,15.26
2023-02-21T11:26:49.548Z,15.16
2023-02-21T11:29:21.161Z,13.92
2023-02-21T11:31:47.888Z,13.62
2023-02-21T11:34:16.968Z,13.22
2023-02-21T11:36:45.433Z,13.13
2023-02-21T11:39:23.866Z,13.00
2023-02-21T11:41:58.794Z,13.18
2023-02-21T11:44:37.900Z,12.90
2023-02-21T11:47:13.943Z,12.89
2023-02-21T11:49:56.477Z,12.83
2023-02-21T11:52:30.009Z,13.06
2023-02-21T11:54:56.544Z,13.05
2023-02-21T11:57:49.579Z,13.02
2023-02-21T12:00:24.586Z,13.01
2023-02-21T12:02:58.069Z,12.91
2023-02-21T12:05:50.362Z,13.14
2023-02-21T12:08:38.662Z,13.32
2023-02-21T12:11:43.140Z,13.19
2023-02-21T12:14:24.674Z,13.36
2023-02-21T12:17:14.707Z,13.25
2023-02-21T12:19:50.982Z,13.45
2023-02-21T12:22:30.053Z,13.01
2023-02-21T12:25:06.518Z,13.23
2023-02-21T12:27:33.184Z,13.63
2023-02-21T12:30:31.217Z,13.26
2023-02-21T12:33:10.452Z,13.20
2023-02-21T12:36:12.510Z,13.56
2023-02-21T12:38:48.251Z,13.33
2023-02-21T12:41:29.775Z,13.47
2023-02-21T12:44:03.769Z,13.77
2023-02-21T12:46:42.499Z,13.70
2023-02-21T12:49:18.351Z,13.52
2023-02-21T12:51:51.584Z,13.45
2023-02-21T12:54:42.328Z,13.70
2023-02-21T12:57:17.765Z,13.67
2023-02-21T13:00:17.195Z,13.75
2023-02-21T13:03:17.614Z,13.76
2023-02-21T13:05:52.443Z,13.94
2023-02-21T13:08:27.902Z,13.63
2023-02-21T13:11:18.631Z,13.80
2023-02-21T13:13:45.509Z,13.81
2023-02-21T13:16:14.038Z,13.80
2023-02-21T13:19:02.324Z,13.65
2023-02-21T13:21:53.535Z,13.97
2023-02-21T13:24:48.383Z,14.00
2023-02-21T13:27:44.621Z,13.89
2023-02-21T13:30:16.733Z,14.01
2023-02-21T13:32:58.738Z,14.11
2023-02-21T13:35:32.714Z,14.13
2023-02-21T13:38:02.518Z,14.08
2023-02-21T13:40:36.882Z,14.03
2023-02-21T13:43:10.663Z,14.12
2023-02-21T13:45:37.006Z,14.31
2023-02-21T13:48:06.168Z,14.35
2023-02-21T13:50:39.078Z,14.17
2023-02-21T13:53:08.769Z,14.26
2023-02-21T13:55:36.889Z,14.06
2023-02-21T13:58:05.795Z,14.03
2023-02-21T14:00:32.070Z,14.12
2023-02-21T14:03:01.199Z,14.17
2023-02-21T14:05:50.722Z,14.07
2023-02-21T14:08:27.479Z,14.16
2023-02-21T14:10:58.800Z,14.12
2023-02-21T14:13:48.962Z,13.91
2023-02-21T14:16:24.343Z,14.05
2023-02-21T14:19:01.560Z,14.16
2023-02-21T14:21:41.580Z,14.27
2023-02-21T14:24:10.662Z,14.28
2023-02-21T14:26:43.216Z,14.24
2023-02-21T14:29:12.684Z,14.30
2023-02-21T14:32:03.664Z,14.10
2023-02-21T14:34:57.647Z,14.02
2023-02-21T14:37:36.068Z,13.89
2023-02-21T14:40:12.363Z,13.85
2023-02-21T14:43:02.342Z,13.91
2023-02-21T14:46:04.155Z,14.00
2023-02-21T14:48:46.630Z,13.90
2023-02-21T14:51:31.456Z,13.86
2023-02-21T14:54:19.286Z,13.86
2023-02-21T14:57:14.059Z,13.85
2023-02-21T14:59:52.782Z,13.88
2023-02-21T15:02:43.747Z,13.73
2023-02-21T15:05:42.689Z,13.78
2023-02-21T15:08:17.881Z,13.81
2023-02-21T15:10:46.512Z,13.73
2023-02-21T15:13:21.146Z,13.69
2023-02-21T15:15:47.504Z,13.66
2023-02-21T15:18:29.679Z,13.56
2023-02-21T15:21:15.372Z,13.57
2023-02-21T15:23:45.091Z,13.57
2023-02-21T15:26:30.674Z,13.65
2023-02-21T15:29:12.157Z,13.55
2023-02-21T15:31:45.856Z,13.57
2023-02-21T15:34:21.284Z,13.47
2023-02-21T15:37:14.668Z,13.41
2023-02-21T15:39:51.073Z,13.38
2023-02-21T15:42:19.651Z,13.26
2023-02-21T15:44:55.483Z,13.17
2023-02-21T15:47:24.133Z,13.08
2023-02-21T15:50:12.894Z,12.75
2023-02-21T15:52:41.958Z,12.53
2023-02-21T15:55:20.813Z,12.52
2023-02-21T15:57:58.775Z,12.51
2023-02-21T16:01:07.204Z,12.33
2023-02-21T16:03:43.906Z,11.97
2023-02-21T16:06:15.706Z,11.73
2023-02-21T16:09:06.176Z,11.60
2023-02-21T16:11:54.934Z,11.28
2023-02-21T16:14:39.744Z,11.03
2023-02-21T16:17:16.323Z,10.91
2023-02-21T16:19:47.911Z,10.69
2023-02-21T16:22:28.373Z,10.41
2023-02-21T16:25:03.958Z,10.26
2023-02-21T16:27:30.335Z,10.05
2023-02-21T16:29:56.777Z,9.92
2023-02-21T16:32:23.973Z,9.70
2023-02-21T16:34:54.716Z,9.64
2023-02-21T16:37:22.780Z,9.38
2023-02-21T16:39:49.564Z,9.02
2023-02-21T16:42:16.141Z,8.83
2023-02-21T16:44:43.648Z,8.73
2023-02-21T16:47:15.385Z,8.65
2023-02-21T16:49:42.803Z,8.64
2023-02-21T16:52:19.027Z,8.35
2023-02-21T16:54:45.452Z,8.18
2023-02-21T16:57:12.071Z,8.06
2023-02-21T16:59:39.180Z,7.87
2023-02-21T17:02:06.640Z,7.77
2023-02-21T17:04:33.891Z,7.59
2023-02-21T17:07:05.623Z,7.40
2023-02-21T17:09:39.049Z,7.18
2023-02-21T17:12:07.116Z,7.01
2023-02-21T17:14:34.479Z,6.86
2023-02-21T17:17:00.953Z,6.62
2023-02-21T17:19:27.822Z,6.59
2023-02-21T17:21:54.714Z,6.38
2023-02-21T17:24:21.178Z,6.28
2023-02-21T17:26:48.119Z,6.23
2023-02-21T17:29:14.542Z,6.18
2023-02-21T17:31:41.054Z,6.14
2023-02-21T17:34:07.711Z,6.07
2023-02-21T17:36:34.126Z,5.90
2023-02-21T17:39:00.558Z,5.78
2023-02-21T17:41:27.983Z,5.64
2023-02-21T17:43:54.991Z,5.55
2023-02-21T17:46:21.562Z,5.51
2023-02-21T17:48:48.716Z,5.47
2023-02-21T17:51:26.842Z,5.39
2023-02-21T17:53:53.327Z,5.31
2023-02-21T17:56:21.660Z,5.22
2023-02-21T17:58:48.326Z,5.12
2023-02-21T18:01:17.369Z,4.94
2023-02-21T18:03:44.416Z,4.79
2023-02-21T18:06:10.829Z,4.71
2023-02-21T18:08:37.624Z,4.63
2023-02-21T18:11:04.193Z,4.55
2023-02-21T18:13:30.680Z,4.50
2023-02-21T18:15:57.621Z,4.49
2023-02-21T18:18:24.082Z,4.35
2023-02-21T18:20:50.488Z,4.31
2023-02-21T18:23:17.664Z,4.28
2023-02-21T18:25:44.552Z,4.24
2023-02-21T18:28:11.046Z,4.17
2023-02-21T18:30:37.980Z,4.20
2023-02-21T18:33:04.406Z,4.14
2023-02-21T18:35:30.905Z,4.12
2023-02-21T18:37:57.660Z,4.03
2023-02-21T18:40:34.062Z,3.97
2023-02-21T18:43:02.765Z,3.87
2023-02-21T18:45:29.225Z,3.83
2023-02-21T18:47:55.588Z,3.83
2023-02-21T18:50:22.282Z,3.89
2023-02-21T18:52:48.734Z,3.85
2023-02-21T18:55:15.181Z,3.75
2023-02-21T18:57:42.152Z,3.72
2023-02-21T19:00:09.964Z,3.69
2023-02-21T19:02:36.505Z,3.63
2023-02-21T19:05:03.280Z,3.60
2023-02-21T19:07:31.876Z,3.54
2023-02-21T19:09:58.311Z,3.48
2023-02-21T19:12:25.136Z,3.37
2023-02-21T19:14:51.555Z,3.34
2023-02-21T19:17:18.102Z,3.29
2023-02-21T19:19:44.735Z,3.26
2023-02-21T19:22:11.131Z,3.17
2023-02-21T19:24:37.563Z,3.16
2023-02-21T19:27:06.744Z,3.16
2023-02-21T19:29:33.197Z,3.15
2023-02-21T19:31:59.740Z,3.05
2023-02-21T19:34:26.760Z,2.97
2023-02-21T19:36:53.220Z,2.90
2023-02-21T19:39:19.783Z,2.87
2023-02-21T19:41:46.715Z,2.84
2023-02-21T19:44:13.265Z,2.82
2023-02-21T19:46:40.083Z,2.82
2023-02-21T19:49:18.274Z,2.73
2023-02-21T19:51:46.595Z,2.80
2023-02-21T19:54:14.392Z,2.67
2023-02-21T19:56:41.691Z,2.61
2023-02-21T19:59:08.194Z,2.63
2023-02-21T20:01:34.727Z,2.63
2023-02-21T20:04:02.089Z,2.58
2023-02-21T20:06:31.012Z,2.54
2023-02-21T20:08:57.395Z,2.53
2023-02-21T20:11:24.660Z,2.56
2023-02-21T20:13:51.042Z,2.48
2023-02-21T20:16:20.232Z,2.35
2023-02-21T20:18:48.723Z,2.31
2023-02-21T20:21:23.896Z,2.32
2023-02-21T20:23:51.991Z,2.24
2023-02-21T20:26:18.543Z,2.08
2023-02-21T20:28:47.546Z,2.03
2023-02-21T20:31:15.102Z,1.98
2023-02-21T20:33:42.030Z,1.90
2023-02-21T20:36:09.482Z,1.83
2023-02-21T20:38:40.011Z,1.79
2023-02-21T20:41:11.040Z,1.81
2023-02-21T20:43:37.449Z,1.80
2023-02-21T20:46:04.873Z,1.78
2023-02-21T20:48:32.295Z,1.77
2023-02-21T20:51:02.822Z,1.75
2023-02-21T20:53:31.250Z,1.69
2023-02-21T20:55:58.308Z,1.73
2023-02-21T20:58:25.112Z,1.71
2023-02-21T21:00:53.662Z,1.68
2023-02-21T21:03:20.101Z,1.61
2023-02-21T21:05:50.622Z,1.55
2023-02-21T21:08:17.542Z,1.48
2023-02-21T21:10:48.481Z,1.46
2023-02-21T21:13:15.849Z,1.47
2023-02-21T21:15:43.987Z,1.49
2023-02-21T21:18:10.916Z,1.45
2023-02-21T21:20:41.332Z,1.38
2023-02-21T21:23:09.246Z,1.25
2023-02-21T21:25:35.793Z,1.20
2023-02-21T21:28:02.905Z,1.20
2023-02-21T21:30:30.780Z,1.18
2023-02-21T21:32:57.991Z,1.14
2023-02-21T21:35:29.874Z,1.09
2023-02-21T21:37:57.809Z,1.08
2023-02-21T21:40:26.750Z,1.06
2023-02-21T21:42:53.796Z,1.01
2023-02-21T21:45:26.368Z,1.06
2023-02-21T21:47:56.355Z,0.97
2023-02-21T21:50:22.787Z,0.97
2023-02-21T21:52:52.825Z,0.94
2023-02-21T21:55:22.157Z,0.88
2023-02-21T21:57:53.798Z,0.80
2023-02-21T22:00:24.660Z,0.75
2023-02-21T22:02:58.038Z,0.71
2023-02-21T22:05:26.445Z,0.72
2023-02-21T22:07:54.190Z,0.80
2023-02-21T22:10:22.342Z,0.83
2023-02-21T22:12:51.673Z,0.65
2023-02-21T22:15:26.950Z,0.61
2023-02-21T22:17:53.841Z,0.53
2023-02-21T22:20:28.723Z,0.50
2023-02-21T22:22:59.268Z,0.49
2023-02-21T22:25:30.379Z,0.50
2023-02-21T22:27:58.037Z,0.56
2023-02-21T22:30:25.302Z,0.55
2023-02-21T22:32:52.214Z,0.51
2023-02-21T22:35:19.907Z,0.37
2023-02-21T22:37:53.958Z,0.33
2023-02-21T22:40:24.276Z,0.31
2023-02-21T22:42:56.726Z,0.28
2023-02-21T22:45:24.036Z,0.26
2023-02-21T22:47:51.954Z,0.29
2023-02-21T22:50:20.688Z,0.32
2023-02-21T22:52:52.169Z,0.26
2023-02-21T22:55:18.743Z,0.17
2023-02-21T22:57:45.591Z,0.21
2023-02-21T23:00:19.817Z,0.19
2023-02-21T23:02:47.734Z,0.22
2023-02-21T23:05:19.421Z,0.15
2023-02-21T23:07:51.870Z,0.16
2023-02-21T23:10:23.667Z,0.14
2023-02-21T23:12:53.194Z,0.10
2023-02-21T23:15:21.268Z,0.07
2023-02-21T23:17:49.590Z,0.11
2023-02-21T23:20:30.249Z,0.09
2023-02-21T23:22:58.799Z,-0.02
2023-02-21T23:25:35.745Z,0.01
2023-02-21T23:28:06.777Z,0.02
2023-02-21T23:30:40.649Z,-0.08
2023-02-21T23:33:23.415Z,-0.16
2023-02-21T23:35:52.238Z,-0.22
2023-02-21T23:38:22.691Z,-0.24
2023-02-21T23:40:56.549Z,-0.24
2023-02-21T23:43:26.262Z,-0.33
2023-02-21T23:45:53.222Z,-0.31
2023-02-21T23:48:20.113Z,-0.29
2023-02-21T23:50:47.175Z,-0.22
2023-02-21T23:53:17.658Z,-0.32
2023-02-21T23:55:46.784Z,-0.29
2023-02-21T23:58:18.373Z,-0.33
